Time;durP1;ratioP1;P1;durP2;ratioP2;P2;SDS_P1;SDS_P2;PMS_P1;PMS_P2;Temp;Humidity;BMP_temperature;BMP_pressure;BME280_temperature;BME280_humidity;BME280_pressure;Samples;Min_cycle;Max_cycle;Signal;HPM_P1;HPM_P2
2023/08/03 00:00:08;;;;;;;7.65;1.50;;;;;;;;;;5029174;28;20034;-72
2023/08/03 00:02:34;;;;;;;6.30;1.50;;;;;;;;;;5029722;28;20493;-72
2023/08/03 00:05:04;;;;;;;4.68;1.23;;;;;;;;;;5028737;28;20033;-73
2023/08/03 00:07:30;;;;;;;6.05;1.40;;;;;;;;;;5025775;28;20018;-73
2023/08/03 00:09:56;;;;;;;10.15;1.67;;;;;;;;;;5029138;28;20080;-72
2023/08/03 00:12:22;;;;;;;7.70;1.35;;;;;;;;;;5026735;28;20091;-72
2023/08/03 00:14:49;;;;;;;5.32;1.15;;;;;;;;;;5029705;28;20037;-72
2023/08/03 00:17:15;;;;;;;3.67;1.67;;;;;;;;;;5029475;28;20387;-72
2023/08/03 00:19:42;;;;;;;7.25;1.00;;;;;;;;;;5029240;28;20037;-72
2023/08/03 00:22:09;;;;;;;7.80;1.67;;;;;;;;;;5025183;28;20474;-72
2023/08/03 00:24:35;;;;;;;7.13;1.30;;;;;;;;;;5025984;28;20113;-72
2023/08/03 00:27:01;;;;;;;7.75;1.30;;;;;;;;;;5015216;28;20022;-72
2023/08/03 00:29:27;;;;;;;8.25;1.52;;;;;;;;;;5020522;28;20062;-72
2023/08/03 00:31:53;;;;;;;5.07;1.38;;;;;;;;;;5030590;28;20029;-72
2023/08/03 00:34:19;;;;;;;3.50;1.10;;;;;;;;;;5028176;28;20029;-71
2023/08/03 00:36:45;;;;;;;3.95;1.05;;;;;;;;;;5025970;28;20042;-72
2023/08/03 00:39:11;;;;;;;8.48;1.42;;;;;;;;;;5023175;28;20265;-73
2023/08/03 00:41:37;;;;;;;5.82;1.65;;;;;;;;;;5022551;28;20084;-73
2023/08/03 00:44:03;;;;;;;6.55;1.30;;;;;;;;;;5025850;28;20036;-73
2023/08/03 00:46:29;;;;;;;4.20;1.15;;;;;;;;;;5029551;28;20099;-73
2023/08/03 00:48:56;;;;;;;2.85;1.50;;;;;;;;;;5029187;28;20037;-73
2023/08/03 00:51:22;;;;;;;4.68;1.13;;;;;;;;;;5030662;28;20029;-72
2023/08/03 00:53:48;;;;;;;4.10;1.30;;;;;;;;;;5026436;28;20164;-72
2023/08/03 00:56:14;;;;;;;4.68;1.20;;;;;;;;;;5027886;28;20083;-72
2023/08/03 00:58:40;;;;;;;6.95;1.83;;;;;;;;;;5026861;28;20029;-72
2023/08/03 01:01:06;;;;;;;4.40;1.20;;;;;;;;;;5029364;28;20104;-72
2023/08/03 01:03:32;;;;;;;3.65;1.40;;;;;;;;;;5026017;28;20029;-72
2023/08/03 01:05:59;;;;;;;7.10;1.50;;;;;;;;;;5025119;28;20041;-72
2023/08/03 01:08:25;;;;;;;2.03;1.00;;;;;;;;;;5030744;28;20038;-73
2023/08/03 01:10:52;;;;;;;5.25;1.30;;;;;;;;;;5029282;28;20033;-72
2023/08/03 01:13:18;;;;;;;3.22;1.17;;;;;;;;;;5025574;28;20029;-73
2023/08/03 01:15:44;;;;;;;3.22;1.08;;;;;;;;;;5026316;28;20021;-72
2023/08/03 01:18:11;;;;;;;6.60;1.58;;;;;;;;;;5025587;28;20045;-72
2023/08/03 01:20:37;;;;;;;3.67;1.27;;;;;;;;;;5027661;28;20033;-73
2023/08/03 01:23:08;;;;;;;4.88;1.20;;;;;;;;;;5025524;28;20022;-72
2023/08/03 01:25:35;;;;;;;3.92;1.15;;;;;;;;;;5019353;28;20153;-72
2023/08/03 01:28:01;;;;;;;2.13;1.40;;;;;;;;;;5029165;28;20168;-72
2023/08/03 01:30:27;;;;;;;4.82;1.00;;;;;;;;;;5026886;28;20075;-72
2023/08/03 01:32:53;;;;;;;8.63;3.35;;;;;;;;;;5027266;28;20026;-72
2023/08/03 01:35:19;;;;;;;4.80;1.63;;;;;;;;;;5012034;28;20476;-73
2023/08/03 01:37:45;;;;;;;4.40;1.70;;;;;;;;;;5022177;28;20058;-72
2023/08/03 01:40:11;;;;;;;4.30;1.27;;;;;;;;;;5025500;28;20026;-72
2023/08/03 01:42:38;;;;;;;6.30;1.33;;;;;;;;;;5021440;28;20037;-72
2023/08/03 01:45:06;;;;;;;1.52;1.10;;;;;;;;;;5023385;28;20146;-71
2023/08/03 01:47:32;;;;;;;3.55;1.30;;;;;;;;;;5025072;28;20029;-72
2023/08/03 01:49:58;;;;;;;7.05;2.55;;;;;;;;;;5029319;28;20025;-72
2023/08/03 01:52:24;;;;;;;3.50;1.48;;;;;;;;;;5027595;28;20037;-72
2023/08/03 01:54:50;;;;;;;3.08;1.35;;;;;;;;;;5030748;28;20037;-72
2023/08/03 01:57:17;;;;;;;3.22;1.20;;;;;;;;;;5026615;28;20041;-72
2023/08/03 01:59:43;;;;;;;2.75;1.33;;;;;;;;;;5025891;28;20058;-72
2023/08/03 02:02:09;;;;;;;6.70;2.13;;;;;;;;;;5019166;28;20092;-72
2023/08/03 02:04:36;;;;;;;4.43;1.60;;;;;;;;;;5028851;28;20117;-73
2023/08/03 02:07:08;;;;;;;4.40;1.08;;;;;;;;;;5020931;28;20037;-73
2023/08/03 02:09:34;;;;;;;12.20;1.77;;;;;;;;;;5019126;28;20475;-72
2023/08/03 02:12:00;;;;;;;6.10;1.23;;;;;;;;;;5024314;28;20416;-72
2023/08/03 02:14:26;;;;;;;5.65;1.45;;;;;;;;;;5028523;28;20442;-72
2023/08/03 02:16:52;;;;;;;5.10;1.48;;;;;;;;;;5029685;28;20033;-72
2023/08/03 02:19:18;;;;;;;4.70;1.52;;;;;;;;;;5032088;28;20045;-72
2023/08/03 02:21:44;;;;;;;5.10;2.03;;;;;;;;;;5028657;28;20036;-71
2023/08/03 02:24:10;;;;;;;7.63;1.63;;;;;;;;;;5029675;28;20041;-72
2023/08/03 02:26:36;;;;;;;7.78;2.13;;;;;;;;;;5029293;28;20137;-72
2023/08/03 02:29:02;;;;;;;2.33;1.50;;;;;;;;;;5029096;28;20048;-72
2023/08/03 02:31:28;;;;;;;6.20;1.60;;;;;;;;;;5031934;28;20426;-71
2023/08/03 02:33:54;;;;;;;4.88;1.40;;;;;;;;;;5025848;28;20079;-73
2023/08/03 02:36:20;;;;;;;2.22;1.60;;;;;;;;;;5030180;28;20112;-75
2023/08/03 02:38:46;;;;;;;4.90;1.50;;;;;;;;;;5025240;28;20442;-74
2023/08/03 02:41:13;;;;;;;4.13;1.55;;;;;;;;;;5033071;28;20040;-75
2023/08/03 02:43:39;;;;;;;3.42;1.60;;;;;;;;;;5030215;28;20033;-74
2023/08/03 02:46:05;;;;;;;7.30;2.00;;;;;;;;;;5030059;28;20037;-75
2023/08/03 02:48:31;;;;;;;4.38;2.65;;;;;;;;;;5028659;28;20042;-73
2023/08/03 02:50:58;;;;;;;4.47;2.10;;;;;;;;;;5031281;28;20116;-73
2023/08/03 02:53:24;;;;;;;4.10;1.90;;;;;;;;;;5024257;28;20048;-73
2023/08/03 02:55:50;;;;;;;5.43;2.80;;;;;;;;;;5036578;28;20029;-74
2023/08/03 02:58:16;;;;;;;6.60;2.95;;;;;;;;;;5043889;28;20384;-74
2023/08/03 03:00:43;;;;;;;7.47;2.55;;;;;;;;;;5032024;28;20041;-72
2023/08/03 03:03:09;;;;;;;8.77;2.92;;;;;;;;;;5025084;28;20041;-73
2023/08/03 03:05:35;;;;;;;8.02;4.10;;;;;;;;;;5026615;28;20029;-75
2023/08/03 03:08:01;;;;;;;5.88;3.30;;;;;;;;;;5036247;28;20082;-74
2023/08/03 03:10:27;;;;;;;7.40;3.67;;;;;;;;;;5024303;28;20533;-75
2023/08/03 03:12:53;;;;;;;9.73;3.90;;;;;;;;;;5030372;28;20422;-74
2023/08/03 03:15:19;;;;;;;7.35;3.53;;;;;;;;;;5030038;28;20034;-74
2023/08/03 03:17:45;;;;;;;11.23;4.13;;;;;;;;;;5027330;28;20033;-75
2023/08/03 03:20:12;;;;;;;10.95;4.38;;;;;;;;;;5030079;28;20063;-74
2023/08/03 03:22:38;;;;;;;8.15;3.45;;;;;;;;;;5032528;28;20028;-74
2023/08/03 03:25:04;;;;;;;8.82;4.25;;;;;;;;;;5028138;28;20072;-74
2023/08/03 03:27:30;;;;;;;12.68;4.35;;;;;;;;;;5020682;28;20029;-76
2023/08/03 03:29:57;;;;;;;8.02;4.00;;;;;;;;;;5018292;28;20037;-74
2023/08/03 03:32:23;;;;;;;13.07;5.15;;;;;;;;;;5023118;28;20549;-76
2023/08/03 03:34:49;;;;;;;14.60;5.40;;;;;;;;;;5024789;28;20017;-76
2023/08/03 03:37:15;;;;;;;11.73;4.82;;;;;;;;;;5022610;28;20499;-75
2023/08/03 03:39:41;;;;;;;6.68;3.72;;;;;;;;;;5023203;28;20113;-75
2023/08/03 03:42:07;;;;;;;11.32;3.63;;;;;;;;;;5022615;28;20048;-74
2023/08/03 03:44:34;;;;;;;9.30;3.00;;;;;;;;;;5021521;28;20060;-75
2023/08/03 03:47:00;;;;;;;9.85;3.60;;;;;;;;;;5022952;28;20087;-74
2023/08/03 03:49:26;;;;;;;11.77;3.75;;;;;;;;;;5029711;28;20025;-75
2023/08/03 03:51:52;;;;;;;11.93;3.58;;;;;;;;;;5028815;28;20061;-74
2023/08/03 03:54:18;;;;;;;11.70;4.00;;;;;;;;;;5040456;28;20025;-73
2023/08/03 03:56:44;;;;;;;13.25;4.22;;;;;;;;;;5027291;28;20037;-73
2023/08/03 03:59:10;;;;;;;15.77;4.35;;;;;;;;;;5023239;28;20038;-73
2023/08/03 04:01:36;;;;;;;16.33;3.70;;;;;;;;;;5026305;28;20428;-73
2023/08/03 04:04:02;;;;;;;20.23;4.82;;;;;;;;;;5026202;28;20395;-74
2023/08/03 04:06:28;;;;;;;14.77;3.50;;;;;;;;;;5024301;28;20022;-75
2023/08/03 04:08:54;;;;;;;10.75;2.50;;;;;;;;;;5028220;28;20033;-74
2023/08/03 04:11:20;;;;;;;9.52;2.67;;;;;;;;;;5030042;28;20030;-75
2023/08/03 04:13:46;;;;;;;9.70;2.13;;;;;;;;;;5034878;28;20422;-74
2023/08/03 04:16:13;;;;;;;4.25;2.13;;;;;;;;;;5030098;28;20033;-74
2023/08/03 04:18:39;;;;;;;4.20;1.65;;;;;;;;;;5028793;28;20033;-74
2023/08/03 04:21:05;;;;;;;4.35;1.40;;;;;;;;;;5028851;28;20116;-74
2023/08/03 04:23:31;;;;;;;6.07;1.75;;;;;;;;;;5029286;28;20034;-74
2023/08/03 04:25:57;;;;;;;5.20;1.88;;;;;;;;;;5028332;28;20097;-73
2023/08/03 04:28:23;;;;;;;4.85;1.50;;;;;;;;;;5029099;28;20096;-74
2023/08/03 04:30:49;;;;;;;3.78;1.40;;;;;;;;;;5029733;28;20033;-74
2023/08/03 04:33:15;;;;;;;6.05;1.60;;;;;;;;;;5031270;28;20037;-74
2023/08/03 04:35:41;;;;;;;4.07;1.55;;;;;;;;;;5027909;28;20065;-74
2023/08/03 04:38:07;;;;;;;2.80;1.25;;;;;;;;;;5030861;28;20056;-74
2023/08/03 04:40:35;;;;;;;7.88;1.60;;;;;;;;;;5025350;28;20030;-74
2023/08/03 04:43:02;;;;;;;6.82;2.10;;;;;;;;;;5031163;28;20052;-74
2023/08/03 04:45:28;;;;;;;10.20;2.10;;;;;;;;;;5029006;28;20038;-74
2023/08/03 04:47:54;;;;;;;4.13;1.73;;;;;;;;;;5028553;28;20069;-74
2023/08/03 04:50:22;;;;;;;4.45;2.40;;;;;;;;;;5028763;28;20033;-74
2023/08/03 04:52:48;;;;;;;7.68;2.72;;;;;;;;;;5027770;28;20026;-74
2023/08/03 04:55:14;;;;;;;3.70;2.03;;;;;;;;;;5027862;28;20026;-74
2023/08/03 04:57:40;;;;;;;8.90;2.53;;;;;;;;;;5015697;28;20105;-74
2023/08/03 05:00:06;;;;;;;13.18;2.97;;;;;;;;;;5036959;28;20037;-74
2023/08/03 05:02:32;;;;;;;8.55;2.35;;;;;;;;;;5028230;28;20041;-74
2023/08/03 05:04:58;;;;;;;12.88;4.10;;;;;;;;;;5027916;28;20516;-75
2023/08/03 05:07:25;;;;;;;10.20;2.38;;;;;;;;;;5026280;28;20082;-75
2023/08/03 05:09:51;;;;;;;9.25;2.15;;;;;;;;;;5017713;28;20042;-75
2023/08/03 05:12:17;;;;;;;7.57;2.33;;;;;;;;;;5019003;28;20137;-74
2023/08/03 05:14:43;;;;;;;17.55;4.88;;;;;;;;;;5029135;28;20061;-74
2023/08/03 05:17:09;;;;;;;11.18;2.85;;;;;;;;;;5027904;28;20041;-74
2023/08/03 05:19:35;;;;;;;8.23;2.17;;;;;;;;;;5030367;28;20041;-73
2023/08/03 05:22:01;;;;;;;10.57;2.97;;;;;;;;;;5027972;28;20107;-74
2023/08/03 05:24:27;;;;;;;15.27;2.70;;;;;;;;;;5028076;28;20025;-74
2023/08/03 05:26:53;;;;;;;15.00;2.40;;;;;;;;;;5029903;28;20032;-73
2023/08/03 05:29:19;;;;;;;12.02;4.07;;;;;;;;;;5026353;28;20172;-73
2023/08/03 05:31:49;;;;;;;12.38;2.50;;;;;;;;;;5019884;28;20390;-73
2023/08/03 05:34:15;;;;;;;9.60;2.42;;;;;;;;;;5026375;28;20151;-73
2023/08/03 05:36:41;;;;;;;11.88;3.20;;;;;;;;;;5030348;28;20060;-74
2023/08/03 05:39:08;;;;;;;8.60;2.40;;;;;;;;;;5028117;28;20037;-74
2023/08/03 05:41:34;;;;;;;13.27;3.08;;;;;;;;;;5030001;28;20026;-74
2023/08/03 05:44:02;;;;;;;10.60;2.53;;;;;;;;;;5027441;28;20026;-73
2023/08/03 05:46:31;;;;;;;7.57;2.90;;;;;;;;;;5028267;28;20061;-73
2023/08/03 05:48:57;;;;;;;12.45;2.90;;;;;;;;;;5031462;28;20446;-73
2023/08/03 05:51:28;;;;;;;14.60;2.35;;;;;;;;;;5033556;28;20030;-73
2023/08/03 05:53:54;;;;;;;9.00;2.63;;;;;;;;;;5031497;28;20053;-73
2023/08/03 05:56:21;;;;;;;12.52;3.85;;;;;;;;;;5033178;28;20072;-74
2023/08/03 05:58:48;;;;;;;15.38;3.47;;;;;;;;;;5032097;28;20029;-73
2023/08/03 06:01:18;;;;;;;14.77;3.50;;;;;;;;;;5024226;28;20037;-73
2023/08/03 06:03:44;;;;;;;9.13;3.45;;;;;;;;;;5030036;28;20101;-73
2023/08/03 06:06:11;;;;;;;9.70;3.28;;;;;;;;;;5028155;28;20033;-74
2023/08/03 06:08:43;;;;;;;10.90;3.15;;;;;;;;;;5031850;28;20590;-73
2023/08/03 06:11:10;;;;;;;8.57;3.17;;;;;;;;;;5032922;28;20099;-73
2023/08/03 06:13:36;;;;;;;16.27;3.58;;;;;;;;;;5029094;28;20121;-73
2023/08/03 06:16:09;;;;;;;15.98;4.18;;;;;;;;;;5034096;28;20030;-73
2023/08/03 06:18:44;;;;;;;9.07;3.25;;;;;;;;;;5028824;28;20040;-73
2023/08/03 06:21:10;;;;;;;13.38;3.80;;;;;;;;;;5032204;28;20119;-73
2023/08/03 06:23:37;;;;;;;12.63;4.38;;;;;;;;;;5032004;28;20033;-73
2023/08/03 06:26:03;;;;;;;11.93;3.35;;;;;;;;;;5031201;28;20033;-73
2023/08/03 06:28:30;;;;;;;11.90;3.50;;;;;;;;;;5032087;28;20498;-73
2023/08/03 06:30:56;;;;;;;8.35;3.40;;;;;;;;;;5031129;28;20459;-73
2023/08/03 06:33:23;;;;;;;10.85;3.28;;;;;;;;;;5033810;28;20618;-73
2023/08/03 06:35:51;;;;;;;8.80;3.33;;;;;;;;;;5037046;28;20033;-74
2023/08/03 06:38:21;;;;;;;8.85;3.00;;;;;;;;;;5029990;28;20042;-74
2023/08/03 06:40:47;;;;;;;11.35;3.20;;;;;;;;;;5030088;28;20510;-74
2023/08/03 06:43:14;;;;;;;10.80;3.22;;;;;;;;;;5033722;28;20084;-73
2023/08/03 06:45:41;;;;;;;8.52;2.58;;;;;;;;;;5032092;28;20026;-73
2023/08/03 06:48:08;;;;;;;6.07;2.38;;;;;;;;;;5030690;28;20510;-73
2023/08/03 06:50:35;;;;;;;10.60;2.67;;;;;;;;;;5031214;28;20053;-73
2023/08/03 06:53:04;;;;;;;7.50;2.00;;;;;;;;;;5031983;28;20045;-73
2023/08/03 06:55:31;;;;;;;6.05;2.10;;;;;;;;;;5028163;28;20034;-73
2023/08/03 06:57:57;;;;;;;5.47;1.63;;;;;;;;;;5029277;28;20028;-74
2023/08/03 07:00:24;;;;;;;5.43;1.65;;;;;;;;;;5026854;28;20037;-73
2023/08/03 07:02:50;;;;;;;8.52;1.80;;;;;;;;;;5021625;28;20141;-76
2023/08/03 07:05:16;;;;;;;6.13;1.20;;;;;;;;;;5022263;28;20030;-75
2023/08/03 07:07:42;;;;;;;3.03;1.67;;;;;;;;;;5028494;28;20137;-75
2023/08/03 07:10:09;;;;;;;9.02;1.27;;;;;;;;;;5028675;28;20041;-76
2023/08/03 07:12:35;;;;;;;8.85;1.50;;;;;;;;;;5020537;28;20057;-78
2023/08/03 07:15:02;;;;;;;3.38;1.30;;;;;;;;;;5025567;28;20076;-77
2023/08/03 07:17:28;;;;;;;6.47;1.40;;;;;;;;;;5020580;28;20101;-78
2023/08/03 07:19:54;;;;;;;6.82;2.10;;;;;;;;;;5016404;28;20091;-77
2023/08/03 07:22:21;;;;;;;7.60;1.33;;;;;;;;;;5032082;28;20037;-76
2023/08/03 07:24:47;;;;;;;9.35;1.30;;;;;;;;;;5032755;28;20036;-75
2023/08/03 07:27:14;;;;;;;3.00;1.10;;;;;;;;;;5030036;28;20026;-75
2023/08/03 07:29:41;;;;;;;5.60;1.38;;;;;;;;;;5029382;28;20038;-74
2023/08/03 07:32:07;;;;;;;7.43;1.10;;;;;;;;;;5026422;28;20467;-73
2023/08/03 07:34:33;;;;;;;3.63;1.00;;;;;;;;;;5028226;28;20042;-73
2023/08/03 07:37:00;;;;;;;5.05;1.10;;;;;;;;;;5021463;28;20081;-74
2023/08/03 07:39:27;;;;;;;2.95;1.13;;;;;;;;;;5029720;28;20037;-75
2023/08/03 07:41:53;;;;;;;3.47;1.13;;;;;;;;;;5027351;28;20041;-76
2023/08/03 07:44:19;;;;;;;6.70;0.88;;;;;;;;;;5029479;28;20036;-76
2023/08/03 07:46:46;;;;;;;5.63;1.00;;;;;;;;;;5026672;28;20636;-75
2023/08/03 07:49:12;;;;;;;4.18;0.70;;;;;;;;;;5024691;28;20064;-75
2023/08/03 07:51:38;;;;;;;7.97;2.20;;;;;;;;;;5022362;28;20860;-76
2023/08/03 07:54:04;;;;;;;3.20;0.70;;;;;;;;;;5016563;28;20364;-75
2023/08/03 07:56:31;;;;;;;5.22;1.30;;;;;;;;;;5017802;28;20042;-74
2023/08/03 07:58:57;;;;;;;6.80;1.25;;;;;;;;;;5024304;28;20033;-75
2023/08/03 08:01:23;;;;;;;1.70;0.50;;;;;;;;;;5020369;28;20072;-73
2023/08/03 08:03:50;;;;;;;5.15;1.00;;;;;;;;;;5027970;28;20467;-73
2023/08/03 08:06:16;;;;;;;3.70;1.10;;;;;;;;;;5022614;28;20026;-73
2023/08/03 08:08:43;;;;;;;1.98;0.90;;;;;;;;;;5013532;28;20383;-74
2023/08/03 08:11:09;;;;;;;5.32;0.90;;;;;;;;;;5021424;28;20033;-74
2023/08/03 08:13:35;;;;;;;4.28;1.08;;;;;;;;;;5030063;28;20041;-75
2023/08/03 08:16:02;;;;;;;6.82;1.45;;;;;;;;;;5038209;28;20049;-74
2023/08/03 08:18:29;;;;;;;9.70;1.10;;;;;;;;;;5030340;28;20117;-74
2023/08/03 08:20:58;;;;;;;8.93;1.30;;;;;;;;;;5027141;28;20422;-74
2023/08/03 08:23:24;;;;;;;4.10;1.05;;;;;;;;;;5030703;28;20022;-74
2023/08/03 08:25:50;;;;;;;7.05;1.85;;;;;;;;;;5028755;28;20394;-75
2023/08/03 08:28:17;;;;;;;5.47;1.40;;;;;;;;;;5030215;28;20188;-75
2023/08/03 08:30:44;;;;;;;7.82;1.52;;;;;;;;;;5031577;28;20534;-75
2023/08/03 08:33:10;;;;;;;6.70;1.40;;;;;;;;;;5030711;28;20037;-74
2023/08/03 08:35:36;;;;;;;6.53;1.10;;;;;;;;;;5027832;28;20644;-75
2023/08/03 08:38:05;;;;;;;3.85;1.05;;;;;;;;;;5028891;28;20057;-74
2023/08/03 08:40:35;;;;;;;7.38;1.60;;;;;;;;;;5030068;28;20029;-75
2023/08/03 08:43:02;;;;;;;6.50;1.60;;;;;;;;;;5031479;28;20028;-74
2023/08/03 08:45:28;;;;;;;5.15;1.30;;;;;;;;;;5030840;28;20029;-74
2023/08/03 08:47:54;;;;;;;6.88;1.33;;;;;;;;;;5027975;28;20030;-75
2023/08/03 08:50:20;;;;;;;5.85;1.23;;;;;;;;;;5030210;28;20029;-75
2023/08/03 08:52:46;;;;;;;4.88;1.13;;;;;;;;;;5025977;28;20116;-75
2023/08/03 08:55:20;;;;;;;5.68;1.30;;;;;;;;;;5028197;28;20092;-75
2023/08/03 08:57:46;;;;;;;5.93;1.40;;;;;;;;;;5031415;28;20009;-75
2023/08/03 09:00:12;;;;;;;7.00;1.88;;;;;;;;;;5019091;28;20373;-75
2023/08/03 09:02:38;;;;;;;4.65;1.40;;;;;;;;;;5024015;28;20092;-75
2023/08/03 09:05:14;;;;;;;7.47;1.50;;;;;;;;;;5026633;28;20081;-75
2023/08/03 09:07:41;;;;;;;8.20;1.02;;;;;;;;;;5030013;28;20108;-75
2023/08/03 09:10:07;;;;;;;5.07;2.03;;;;;;;;;;5024145;28;20050;-75
2023/08/03 09:12:33;;;;;;;6.38;1.50;;;;;;;;;;5022906;28;20415;-75
2023/08/03 09:14:59;;;;;;;6.25;1.38;;;;;;;;;;5016069;28;20037;-75
2023/08/03 09:17:26;;;;;;;3.33;1.00;;;;;;;;;;5029665;28;20041;-75
2023/08/03 09:19:52;;;;;;;6.18;1.63;;;;;;;;;;5031160;28;20138;-75
2023/08/03 09:22:19;;;;;;;4.65;1.58;;;;;;;;;;5031173;28;20037;-75
2023/08/03 09:24:48;;;;;;;4.82;1.10;;;;;;;;;;5042911;28;20037;-75
2023/08/03 09:27:17;;;;;;;7.63;1.65;;;;;;;;;;5027426;28;20034;-76
2023/08/03 09:29:44;;;;;;;5.80;1.42;;;;;;;;;;5025107;28;20041;-73
2023/08/03 09:32:10;;;;;;;3.33;1.63;;;;;;;;;;5021804;28;20048;-75
2023/08/03 09:34:37;;;;;;;10.05;6.25;;;;;;;;;;5024871;28;20045;-75
2023/08/03 09:37:03;;;;;;;6.90;1.92;;;;;;;;;;5021990;28;20140;-78
2023/08/03 09:39:34;;;;;;;7.90;1.60;;;;;;;;;;5025827;28;20033;-76
2023/08/03 09:42:03;;;;;;;4.72;1.20;;;;;;;;;;5021135;28;20041;-79
2023/08/03 09:44:30;;;;;;;5.22;1.13;;;;;;;;;;5022227;28;20108;-80
2023/08/03 09:46:57;;;;;;;8.50;2.00;;;;;;;;;;5026742;28;20668;-80
2023/08/03 09:49:25;;;;;;;9.50;2.13;;;;;;;;;;5023531;28;20061;-77
2023/08/03 09:51:55;;;;;;;8.55;1.40;;;;;;;;;;5025639;28;20036;-75
2023/08/03 09:54:42;;;;;;;11.50;4.88;;;;;;;;;;5021578;28;20037;-75
2023/08/03 09:57:10;;;;;;;9.02;2.58;;;;;;;;;;5024942;28;20042;-75
2023/08/03 09:59:37;;;;;;;6.55;1.40;;;;;;;;;;5020572;28;20030;-75
2023/08/03 10:02:06;;;;;;;7.68;1.45;;;;;;;;;;5023213;28;20041;-74
2023/08/03 10:04:34;;;;;;;6.53;1.20;;;;;;;;;;5020109;28;20041;-74
2023/08/03 10:07:02;;;;;;;4.03;1.05;;;;;;;;;;5024735;28;20033;-75
2023/08/03 10:09:31;;;;;;;7.07;1.33;;;;;;;;;;5025079;28;20034;-75
2023/08/03 10:11:59;;;;;;;2.72;0.90;;;;;;;;;;5025777;28;20108;-73
2023/08/03 10:14:31;;;;;;;3.40;0.85;;;;;;;;;;5020313;28;20569;-73
2023/08/03 10:17:00;;;;;;;3.47;0.85;;;;;;;;;;5020463;28;20037;-75
2023/08/03 10:19:26;;;;;;;5.85;3.83;;;;;;;;;;5018850;28;20033;-76
2023/08/03 10:21:53;;;;;;;15.68;8.43;;;;;;;;;;5026006;28;20070;-76
2023/08/03 10:24:19;;;;;;;4.57;0.82;;;;;;;;;;5025989;28;20034;-74
2023/08/03 10:26:51;;;;;;;4.45;0.85;;;;;;;;;;5024229;28;20042;-75
2023/08/03 10:29:17;;;;;;;4.30;1.13;;;;;;;;;;5026988;28;20132;-74
2023/08/03 10:31:56;;;;;;;4.40;0.80;;;;;;;;;;5021482;28;20029;-73
2023/08/03 10:34:29;;;;;;;3.55;1.17;;;;;;;;;;5020788;28;20033;-73
2023/08/03 10:36:56;;;;;;;2.63;0.80;;;;;;;;;;5024054;28;20045;-73
2023/08/03 10:39:41;;;;;;;3.97;1.00;;;;;;;;;;5020701;28;20152;-72
2023/08/03 10:42:23;;;;;;;6.85;1.33;;;;;;;;;;5025420;28;20064;-74
2023/08/03 10:44:50;;;;;;;7.72;2.20;;;;;;;;;;5021341;28;20037;-79
2023/08/03 10:47:29;;;;;;;5.38;0.60;;;;;;;;;;5024846;28;20045;-72
2023/08/03 10:49:59;;;;;;;5.03;1.23;;;;;;;;;;5023268;28;20113;-71
2023/08/03 10:52:30;;;;;;;5.72;1.20;;;;;;;;;;5017166;28;20059;-71
2023/08/03 10:54:57;;;;;;;4.95;1.00;;;;;;;;;;5023337;28;20128;-72
2023/08/03 10:57:33;;;;;;;8.18;1.50;;;;;;;;;;5018371;28;20633;-72
2023/08/03 11:00:00;;;;;;;4.15;0.63;;;;;;;;;;5019718;28;20045;-73
2023/08/03 11:02:30;;;;;;;5.15;0.95;;;;;;;;;;5022468;28;20060;-73
2023/08/03 11:04:58;;;;;;;3.58;0.90;;;;;;;;;;5022654;28;20059;-73
2023/08/03 11:07:24;;;;;;;3.25;0.90;;;;;;;;;;5024218;28;20021;-73
2023/08/03 11:09:54;;;;;;;4.25;0.88;;;;;;;;;;5020187;28;20038;-73
2023/08/03 11:12:22;;;;;;;4.03;0.77;;;;;;;;;;5029342;28;20029;-73
2023/08/03 11:14:49;;;;;;;2.97;0.75;;;;;;;;;;5022311;28;20450;-73
2023/08/03 11:17:15;;;;;;;2.60;0.95;;;;;;;;;;5022746;28;20483;-72
2023/08/03 11:19:42;;;;;;;3.58;0.80;;;;;;;;;;5025409;28;20079;-73
2023/08/03 11:22:08;;;;;;;2.88;1.00;;;;;;;;;;5025910;28;20025;-73
2023/08/03 11:24:35;;;;;;;6.05;0.80;;;;;;;;;;5023092;28;20021;-73
2023/08/03 11:27:02;;;;;;;2.42;0.73;;;;;;;;;;5022194;28;20552;-73
2023/08/03 11:29:28;;;;;;;6.38;0.98;;;;;;;;;;5023341;28;20052;-72
2023/08/03 11:31:54;;;;;;;4.20;0.90;;;;;;;;;;5019245;28;20029;-85
2023/08/03 11:34:23;;;;;;;2.05;0.60;;;;;;;;;;5020047;28;20374;-81
2023/08/03 11:36:49;;;;;;;2.97;0.85;;;;;;;;;;5021218;28;20502;-85
2023/08/03 11:39:16;;;;;;;2.92;0.95;;;;;;;;;;5021749;28;20059;-90
2023/08/03 11:41:42;;;;;;;3.17;0.80;;;;;;;;;;5021721;28;20141;-86
2023/08/03 11:44:08;;;;;;;4.25;1.00;;;;;;;;;;5023255;28;20048;-83
2023/08/03 11:46:35;;;;;;;4.07;0.90;;;;;;;;;;5024220;28;20045;-84
2023/08/03 11:49:04;;;;;;;2.85;1.05;;;;;;;;;;5022690;28;20590;-82
2023/08/03 11:51:31;;;;;;;5.05;1.70;;;;;;;;;;5022056;28;20029;-81
2023/08/03 11:54:00;;;;;;;4.68;1.50;;;;;;;;;;5021675;28;20151;-79
2023/08/03 11:56:27;;;;;;;5.97;1.00;;;;;;;;;;5021942;28;20044;-84
2023/08/03 11:58:53;;;;;;;10.80;1.67;;;;;;;;;;5022133;28;20033;-79
2023/08/03 12:01:24;;;;;;;2.70;1.13;;;;;;;;;;5026883;28;20041;-76
2023/08/03 12:03:50;;;;;;;5.10;1.40;;;;;;;;;;5029786;28;20025;-76
2023/08/03 12:06:16;;;;;;;4.97;1.40;;;;;;;;;;5030258;28;20032;-76
2023/08/03 12:08:47;;;;;;;5.68;1.42;;;;;;;;;;5030717;28;20133;-75
2023/08/03 12:11:16;;;;;;;7.88;1.65;;;;;;;;;;5032143;28;20104;-75
2023/08/03 12:13:43;;;;;;;8.82;2.08;;;;;;;;;;5029117;28;20033;-75
2023/08/03 12:16:09;;;;;;;7.10;1.65;;;;;;;;;;5025433;28;20029;-75
2023/08/03 12:18:35;;;;;;;11.30;1.70;;;;;;;;;;5031852;28;20034;-74
2023/08/03 12:21:02;;;;;;;8.05;1.60;;;;;;;;;;5026044;28;20033;-75
2023/08/03 12:23:28;;;;;;;5.45;1.20;;;;;;;;;;5028390;28;20424;-74
2023/08/03 12:25:54;;;;;;;5.43;1.20;;;;;;;;;;5027609;28;20510;-75
2023/08/03 12:28:21;;;;;;;4.85;1.13;;;;;;;;;;5020618;28;20045;-76
2023/08/03 12:30:47;;;;;;;5.40;1.50;;;;;;;;;;5015790;28;20075;-77
2023/08/03 12:33:13;;;;;;;12.88;1.73;;;;;;;;;;5016958;28;20041;-79
2023/08/03 12:35:39;;;;;;;7.50;1.33;;;;;;;;;;5021920;28;20076;-77
2023/08/03 12:38:05;;;;;;;7.75;1.38;;;;;;;;;;5025447;28;20049;-78
2023/08/03 12:40:32;;;;;;;4.00;1.38;;;;;;;;;;5022109;28;20030;-78
2023/08/03 12:42:58;;;;;;;3.00;1.20;;;;;;;;;;5020196;28;20034;-77
2023/08/03 12:45:24;;;;;;;6.13;1.63;;;;;;;;;;5021181;28;20124;-76
2023/08/03 12:47:50;;;;;;;6.90;2.03;;;;;;;;;;5022646;28;20168;-77
2023/08/03 12:50:16;;;;;;;7.38;1.77;;;;;;;;;;5019156;28;20052;-77
2023/08/03 12:52:42;;;;;;;7.53;1.83;;;;;;;;;;5022856;28;20033;-76
2023/08/03 12:55:08;;;;;;;12.55;2.80;;;;;;;;;;5021183;28;20132;-79
2023/08/03 12:57:35;;;;;;;12.63;2.47;;;;;;;;;;5017461;28;20387;-76
2023/08/03 13:00:01;;;;;;;13.65;2.30;;;;;;;;;;5026226;28;20037;-75
2023/08/03 13:02:27;;;;;;;10.10;2.30;;;;;;;;;;5028028;28;20041;-75
2023/08/03 13:28:51;;;;;;;9.52;2.55;;;;;;;;;;5009587;28;20088;-75
2023/08/03 13:31:17;;;;;;;13.07;2.35;;;;;;;;;;5019173;28;20029;-73
2023/08/03 13:33:43;;;;;;;14.75;3.58;;;;;;;;;;5017539;28;20029;-72
2023/08/03 13:36:10;;;;;;;14.45;3.63;;;;;;;;;;5024685;28;20033;-75
2023/08/03 13:38:36;;;;;;;13.65;3.22;;;;;;;;;;5029485;28;20060;-75
2023/08/03 13:41:05;;;;;;;13.88;2.63;;;;;;;;;;5030019;28;20176;-72
2023/08/03 13:43:31;;;;;;;12.93;3.10;;;;;;;;;;5025366;28;20040;-74
2023/08/03 13:45:57;;;;;;;13.25;2.70;;;;;;;;;;5020388;28;20033;-75
2023/08/03 13:48:23;;;;;;;11.73;2.50;;;;;;;;;;5019866;28;20050;-74
2023/08/03 13:50:49;;;;;;;12.85;2.80;;;;;;;;;;5018800;28;20041;-74
2023/08/03 13:53:15;;;;;;;15.02;3.05;;;;;;;;;;5024119;28;20038;-74
2023/08/03 13:55:41;;;;;;;9.88;2.60;;;;;;;;;;5024577;28;20029;-75
2023/08/03 13:58:09;;;;;;;10.60;2.53;;;;;;;;;;5024630;28;20570;-75
2023/08/03 14:00:37;;;;;;;8.70;2.22;;;;;;;;;;5018268;28;20030;-74
2023/08/03 14:03:03;;;;;;;10.18;1.90;;;;;;;;;;5025687;28;20033;-75
2023/08/03 14:05:29;;;;;;;11.68;2.63;;;;;;;;;;5026876;28;20049;-75
2023/08/03 14:07:55;;;;;;;12.25;3.13;;;;;;;;;;5025957;28;20021;-75
2023/08/03 14:10:21;;;;;;;10.30;2.20;;;;;;;;;;5030920;28;20590;-74
2023/08/03 14:12:48;;;;;;;12.52;2.15;;;;;;;;;;5024585;28;20518;-75
2023/08/03 14:15:14;;;;;;;10.25;2.55;;;;;;;;;;5024600;28;20061;-74
2023/08/03 14:17:40;;;;;;;13.63;4.25;;;;;;;;;;5028936;28;20117;-74
2023/08/03 14:20:07;;;;;;;14.23;2.20;;;;;;;;;;5027203;28;20052;-75
2023/08/03 14:22:33;;;;;;;13.73;2.63;;;;;;;;;;5025691;28;20083;-73
2023/08/03 14:24:59;;;;;;;10.70;2.30;;;;;;;;;;5033083;28;20047;-73
2023/08/03 14:27:25;;;;;;;11.73;2.25;;;;;;;;;;5021826;28;20033;-74
2023/08/03 14:29:51;;;;;;;7.43;2.15;;;;;;;;;;5028351;28;20057;-73
2023/08/03 14:32:17;;;;;;;9.68;2.13;;;;;;;;;;5022255;28;20034;-73
2023/08/03 14:34:44;;;;;;;9.63;2.10;;;;;;;;;;5023890;28;20388;-73
2023/08/03 14:37:11;;;;;;;10.80;2.65;;;;;;;;;;5026271;28;20076;-73
2023/08/03 14:39:37;;;;;;;6.97;2.35;;;;;;;;;;5025926;28;20037;-73
2023/08/03 14:42:03;;;;;;;9.90;2.70;;;;;;;;;;5026162;28;20047;-73
2023/08/03 14:44:29;;;;;;;13.38;2.65;;;;;;;;;;5023209;28;20037;-74
2023/08/03 14:46:57;;;;;;;11.75;2.50;;;;;;;;;;5025216;28;20475;-75
2023/08/03 14:49:24;;;;;;;8.32;2.20;;;;;;;;;;5027410;28;20030;-74
2023/08/03 14:51:50;;;;;;;13.00;2.80;;;;;;;;;;5024738;28;20041;-74
2023/08/03 14:54:16;;;;;;;13.55;3.03;;;;;;;;;;5030329;28;20064;-76
2023/08/03 14:56:42;;;;;;;14.55;3.42;;;;;;;;;;5032893;28;20037;-76
2023/08/03 14:59:08;;;;;;;14.50;2.90;;;;;;;;;;5048343;28;20465;-73
2023/08/03 15:01:34;;;;;;;14.25;3.13;;;;;;;;;;5026382;28;20088;-73